createdAt,value
2018-06-10T00:00:39.051Z,95.10
2018-06-10T00:03:07.753Z,94.90
2018-06-10T00:05:36.456Z,95.00
2018-06-10T00:08:05.233Z,94.70
2018-06-10T00:10:33.933Z,94.60
2018-06-10T00:13:02.635Z,94.70
2018-06-10T00:15:31.365Z,94.40
2018-06-10T00:18:00.090Z,94.50
2018-06-10T00:20:28.882Z,94.70
2018-06-10T00:22:57.545Z,94.80
2018-06-10T00:25:26.257Z,94.80
2018-06-10T00:27:54.962Z,94.70
2018-06-10T00:30:23.694Z,94.70
2018-06-10T00:32:52.413Z,94.70
2018-06-10T00:35:21.121Z,94.50
2018-06-10T00:37:49.816Z,94.60
2018-06-10T00:40:18.723Z,94.30
2018-06-10T00:42:47.450Z,94.20
2018-06-10T00:45:16.131Z,94.10
2018-06-10T00:47:44.849Z,94.20
2018-06-10T00:50:13.553Z,94.10
2018-06-10T00:52:42.311Z,94.20
2018-06-10T00:55:11.038Z,94.40
2018-06-10T00:57:39.750Z,94.70
2018-06-10T01:00:08.481Z,94.70
2018-06-10T01:02:37.344Z,94.70
2018-06-10T01:05:06.037Z,94.50
2018-06-10T01:07:34.762Z,94.50
2018-06-10T01:10:03.619Z,94.60
2018-06-10T01:12:32.488Z,94.70
2018-06-10T01:15:01.226Z,94.80
2018-06-10T01:17:29.933Z,94.80
2018-06-10T01:19:58.675Z,94.70
2018-06-10T01:22:28.187Z,94.80
2018-06-10T01:24:56.953Z,94.80
2018-06-10T01:27:25.812Z,94.90
2018-06-10T01:29:54.522Z,94.80
2018-06-10T01:32:23.227Z,95.00
2018-06-10T01:34:51.937Z,94.80
2018-06-10T01:37:20.646Z,94.60
2018-06-10T01:39:49.345Z,94.50
2018-06-10T01:42:18.066Z,94.60
2018-06-10T01:44:46.811Z,94.50
2018-06-10T01:47:23.393Z,95.00
2018-06-10T01:49:52.114Z,95.10
2018-06-10T01:52:20.811Z,95.10
2018-06-10T01:54:49.521Z,94.80
2018-06-10T01:57:18.237Z,95.00
2018-06-10T01:59:47.118Z,94.90
2018-06-10T02:02:15.851Z,95.10
2018-06-10T02:04:44.589Z,95.00
2018-06-10T02:07:13.293Z,95.00
2018-06-10T02:09:42.039Z,94.90
2018-06-10T02:12:10.762Z,95.20
2018-06-10T02:14:39.485Z,95.30
2018-06-10T02:17:13.923Z,95.40
2018-06-10T02:19:48.209Z,95.60
2018-06-10T02:22:16.937Z,95.70
2018-06-10T02:24:45.708Z,95.40
2018-06-10T02:27:14.437Z,95.80
2018-06-10T02:29:43.146Z,95.80
2018-06-10T02:32:12.926Z,95.80
2018-06-10T02:34:41.693Z,95.70
2018-06-10T02:37:10.650Z,95.70
2018-06-10T02:39:39.361Z,95.60
2018-06-10T02:42:08.069Z,95.90
2018-06-10T02:44:36.781Z,95.90
2018-06-10T02:47:05.505Z,95.80
2018-06-10T02:49:34.209Z,95.80
2018-06-10T02:52:02.981Z,95.70
2018-06-10T02:54:31.709Z,95.70
2018-06-10T02:57:00.413Z,95.60
2018-06-10T02:59:29.125Z,95.70
2018-06-10T03:01:57.893Z,95.70
2018-06-10T03:04:26.606Z,95.70
2018-06-10T03:06:55.363Z,95.70
2018-06-10T03:09:24.094Z,95.80
2018-06-10T03:11:52.797Z,95.90
2018-06-10T03:14:21.536Z,96.10
2018-06-10T03:16:50.253Z,96.10
2018-06-10T03:21:47.400Z,96.00
2018-06-10T03:24:16.337Z,95.90
2018-06-10T03:26:45.088Z,96.00
2018-06-10T03:29:13.809Z,95.90
2018-06-10T03:31:42.554Z,95.90
2018-06-10T03:34:13.457Z,95.90
2018-06-10T03:36:42.169Z,96.00
2018-06-10T03:39:10.957Z,96.00
2018-06-10T03:41:39.709Z,95.90
2018-06-10T03:44:08.425Z,95.80
2018-06-10T03:46:37.125Z,95.80
2018-06-10T03:49:05.829Z,95.80
2018-06-10T03:51:34.549Z,95.70
2018-06-10T03:54:03.426Z,95.70
2018-06-10T03:56:32.165Z,95.80
2018-06-10T03:59:00.913Z,95.60
2018-06-10T04:01:29.665Z,95.60
2018-06-10T04:04:00.496Z,95.50
2018-06-10T04:06:29.201Z,95.70
2018-06-10T04:08:57.917Z,95.80
2018-06-10T04:11:26.651Z,95.60
2018-06-10T04:13:55.401Z,95.40
2018-06-10T04:16:24.109Z,95.40
2018-06-10T04:18:52.961Z,95.40
2018-06-10T04:21:21.679Z,95.50
2018-06-10T04:23:50.357Z,95.60
2018-06-10T04:26:19.105Z,95.50
2018-06-10T04:28:47.822Z,95.90
2018-06-10T04:31:16.557Z,96.00
2018-06-10T04:33:45.305Z,95.90
2018-06-10T04:36:14.022Z,95.80
2018-06-10T04:38:42.870Z,95.80
2018-06-10T04:41:11.593Z,95.80
2018-06-10T04:43:40.309Z,95.90
2018-06-10T04:46:09.009Z,95.80
2018-06-10T04:48:37.762Z,96.00
2018-06-10T04:51:06.478Z,96.00
2018-06-10T04:53:35.417Z,96.30
2018-06-10T04:56:04.122Z,95.90
2018-06-10T04:58:32.836Z,96.00
2018-06-10T05:01:01.602Z,96.00
2018-06-10T05:03:30.329Z,96.00
2018-06-10T05:05:59.053Z,95.90
2018-06-10T05:08:27.789Z,95.90
2018-06-10T05:10:56.518Z,96.00
2018-06-10T05:13:25.277Z,95.80
2018-06-10T05:15:53.977Z,96.00
2018-06-10T05:18:22.689Z,96.20
2018-06-10T05:20:51.431Z,96.30
2018-06-10T05:23:20.161Z,96.40
2018-06-10T05:25:49.017Z,96.30
2018-06-10T05:28:17.746Z,96.50
2018-06-10T05:30:46.513Z,96.00
2018-06-10T05:33:15.210Z,96.00
2018-06-10T05:35:43.949Z,95.80
2018-06-10T05:38:12.801Z,95.80
2018-06-10T05:40:41.529Z,95.90
2018-06-10T05:43:10.266Z,95.80
2018-06-10T05:45:38.990Z,95.70
2018-06-10T05:48:18.629Z,95.90
2018-06-10T05:50:47.374Z,95.70
2018-06-10T05:53:16.078Z,95.70
2018-06-10T05:55:44.822Z,95.80
2018-06-10T05:58:13.609Z,95.60
2018-06-10T06:00:42.313Z,95.50
2018-06-10T06:03:11.058Z,96.00
2018-06-10T06:05:39.770Z,95.70
2018-06-10T06:08:08.550Z,95.50
2018-06-10T06:10:37.293Z,95.40
2018-06-10T06:13:06.018Z,95.30
2018-06-10T06:15:34.754Z,95.90
2018-06-10T06:18:03.513Z,95.70
2018-06-10T06:20:32.369Z,95.10
2018-06-10T06:23:01.095Z,95.30
2018-06-10T06:25:29.861Z,95.10
2018-06-10T06:27:58.598Z,95.30
2018-06-10T06:30:27.328Z,95.00
2018-06-10T06:32:56.038Z,95.20
2018-06-10T06:35:24.749Z,95.30
2018-06-10T06:37:53.545Z,95.30
2018-06-10T06:42:50.658Z,94.40
2018-06-10T06:45:19.459Z,94.10
2018-06-10T06:47:48.177Z,94.50
2018-06-10T06:50:16.950Z,95.20
2018-06-10T06:52:45.694Z,94.40
2018-06-10T06:55:14.401Z,94.00
2018-06-10T06:57:45.265Z,93.60
2018-06-10T07:00:13.970Z,93.90
2018-06-10T07:02:42.725Z,93.40
2018-06-10T07:05:11.485Z,93.10
2018-06-10T07:07:40.302Z,92.90
2018-06-10T07:10:09.076Z,92.00
2018-06-10T07:12:37.768Z,92.80
2018-06-10T07:15:06.486Z,93.10
2018-06-10T07:17:35.302Z,92.90
2018-06-10T07:20:04.136Z,92.90
2018-06-10T07:22:32.749Z,92.10
2018-06-10T07:25:01.502Z,91.80
2018-06-10T07:27:30.226Z,92.10
2018-06-10T07:29:58.965Z,92.30
2018-06-10T07:32:27.686Z,91.00
2018-06-10T07:34:56.413Z,90.00
2018-06-10T07:39:53.618Z,90.60
2018-06-10T07:42:22.345Z,90.00
2018-06-10T07:44:51.072Z,87.70
2018-06-10T07:47:19.945Z,89.40
2018-06-10T07:49:48.681Z,87.40
2018-06-10T07:52:17.502Z,87.50
2018-06-10T07:54:46.225Z,90.00
2018-06-10T07:57:15.015Z,86.40
2018-06-10T07:59:43.741Z,88.60
2018-06-10T08:02:12.610Z,89.50
2018-06-10T08:04:41.325Z,85.80
2018-06-10T08:07:10.053Z,86.70
2018-06-10T08:09:38.966Z,84.40
2018-06-10T08:12:07.726Z,85.90
2018-06-10T08:14:36.478Z,83.80
2018-06-10T08:17:05.213Z,80.50
2018-06-10T08:19:33.925Z,81.70
2018-06-10T08:22:02.670Z,81.30
2018-06-10T08:24:31.385Z,83.20
2018-06-10T08:29:41.718Z,77.80
2018-06-10T08:32:10.523Z,77.70
2018-06-10T08:34:39.237Z,77.50
2018-06-10T08:37:07.962Z,78.30
2018-06-10T08:39:36.701Z,78.30
2018-06-10T08:42:05.811Z,77.50
2018-06-10T08:47:05.237Z,78.50
2018-06-10T08:52:13.457Z,80.50
2018-06-10T08:54:42.166Z,78.90
2018-06-10T08:57:10.878Z,79.30
2018-06-10T08:59:39.585Z,81.30
2018-06-10T09:02:08.302Z,79.30
2018-06-10T09:04:37.058Z,79.00
2018-06-10T09:07:09.733Z,79.20
2018-06-10T09:09:38.437Z,79.70
2018-06-10T09:12:07.177Z,80.30
2018-06-10T09:14:35.869Z,78.70
2018-06-10T09:17:04.773Z,79.20
2018-06-10T09:19:33.530Z,79.20
2018-06-10T09:22:07.940Z,78.60
2018-06-10T09:24:36.685Z,79.50
2018-06-10T09:27:05.565Z,77.60
2018-06-10T09:29:34.273Z,77.30
2018-06-10T09:32:02.993Z,76.60
2018-06-10T09:34:31.785Z,74.90
2018-06-10T09:37:00.506Z,77.10
2018-06-10T09:39:29.405Z,76.70
2018-06-10T09:41:58.235Z,75.90
2018-06-10T09:44:26.938Z,76.60
2018-06-10T09:46:55.977Z,74.30
2018-06-10T09:49:24.703Z,76.70
2018-06-10T09:52:05.374Z,77.20
2018-06-10T09:54:38.113Z,77.80
2018-06-10T09:57:06.893Z,77.70
2018-06-10T09:59:35.805Z,78.00
2018-06-10T10:02:04.534Z,79.10
2018-06-10T10:04:33.278Z,78.90
2018-06-10T10:07:02.074Z,79.30
2018-06-10T10:09:30.785Z,79.30
2018-06-10T10:11:59.653Z,78.70
2018-06-10T10:14:28.452Z,81.90
2018-06-10T10:16:57.169Z,79.20
2018-06-10T10:19:25.887Z,79.20
2018-06-10T10:22:09.141Z,77.90
2018-06-10T10:24:37.886Z,78.10
2018-06-10T10:27:06.590Z,77.20
2018-06-10T10:29:36.329Z,76.90
2018-06-10T10:32:05.075Z,74.20
2018-06-10T10:34:33.834Z,77.00
2018-06-10T10:37:02.549Z,76.90
2018-06-10T10:39:31.313Z,73.50
2018-06-10T10:42:00.049Z,75.70
2018-06-10T10:44:28.781Z,75.20
2018-06-10T10:46:57.570Z,74.00
2018-06-10T10:49:26.281Z,73.50
2018-06-10T10:51:55.647Z,72.10
2018-06-10T10:54:25.520Z,72.90
2018-06-10T10:56:55.740Z,70.70
2018-06-10T10:59:26.061Z,69.70
2018-06-10T11:01:58.971Z,70.80
2018-06-10T11:06:56.093Z,68.20
2018-06-10T11:09:24.990Z,67.50
2018-06-10T11:11:53.705Z,67.70
2018-06-10T11:14:22.405Z,69.10
2018-06-10T11:16:51.125Z,68.70
2018-06-10T11:19:20.071Z,68.60
2018-06-10T11:21:48.767Z,68.10
2018-06-10T11:24:17.539Z,69.90
2018-06-10T11:26:46.243Z,67.80
2018-06-10T11:29:15.241Z,68.50
2018-06-10T11:31:44.029Z,67.60
2018-06-10T11:34:13.090Z,67.50
2018-06-10T11:36:41.801Z,67.70
2018-06-10T11:39:15.217Z,67.30
2018-06-10T11:41:44.557Z,67.80
2018-06-10T11:44:13.261Z,69.60
2018-06-10T11:46:42.037Z,69.80
2018-06-10T11:49:10.751Z,66.20
2018-06-10T11:51:52.906Z,67.80
2018-06-10T11:54:21.633Z,66.10
2018-06-10T11:56:50.346Z,67.00
2018-06-10T11:59:19.279Z,68.00
2018-06-10T12:01:47.997Z,65.60
2018-06-10T12:06:45.214Z,65.50
2018-06-10T12:09:13.950Z,67.70
2018-06-10T12:11:42.649Z,66.40
2018-06-10T12:14:11.387Z,65.40
2018-06-10T12:16:40.167Z,65.40
2018-06-10T12:19:08.874Z,64.60
2018-06-10T12:21:37.573Z,64.40
2018-06-10T12:24:06.351Z,63.80
2018-06-10T12:26:35.099Z,63.60
2018-06-10T12:29:03.809Z,63.60
2018-06-10T12:31:32.600Z,64.90
2018-06-10T12:34:01.386Z,62.80
2018-06-10T12:36:30.142Z,62.60
2018-06-10T12:38:59.081Z,64.60
2018-06-10T12:41:27.836Z,64.70
2018-06-10T12:46:24.965Z,65.60
2018-06-10T12:51:23.149Z,66.00
2018-06-10T12:53:51.877Z,66.00
2018-06-10T12:56:20.579Z,64.20
2018-06-10T12:58:49.310Z,64.50
2018-06-10T13:01:18.038Z,64.30
2018-06-10T13:03:46.811Z,60.80
2018-06-10T13:06:15.526Z,59.00
2018-06-10T13:08:44.351Z,58.30
2018-06-10T13:11:13.054Z,59.20
2018-06-10T13:13:41.757Z,59.20
2018-06-10T13:16:10.463Z,58.60
2018-06-10T13:18:39.189Z,57.20
2018-06-10T13:21:07.889Z,57.30
2018-06-10T13:23:36.613Z,57.00
2018-06-10T13:26:05.327Z,59.00
2018-06-10T13:28:34.042Z,56.90
2018-06-10T13:31:02.733Z,58.70
2018-06-10T13:33:31.568Z,58.40
2018-06-10T13:36:00.439Z,57.90
2018-06-10T13:38:29.185Z,59.00
2018-06-10T13:40:58.094Z,59.40
2018-06-10T13:43:26.909Z,57.30
2018-06-10T13:45:55.652Z,59.00
2018-06-10T13:48:24.357Z,58.00
2018-06-10T13:50:53.081Z,57.00
2018-06-10T13:53:24.861Z,58.20
2018-06-10T13:55:53.605Z,58.40
2018-06-10T13:58:22.317Z,55.10
2018-06-10T14:03:19.480Z,55.70
2018-06-10T14:05:48.215Z,55.00
2018-06-10T14:08:16.925Z,55.30
2018-06-10T14:10:45.650Z,55.40
2018-06-10T14:13:14.513Z,54.20
2018-06-10T14:15:43.238Z,54.50
2018-06-10T14:18:11.948Z,56.00
2018-06-10T14:20:40.658Z,56.90
2018-06-10T14:23:09.385Z,56.50
2018-06-10T14:25:38.095Z,55.10
2018-06-10T14:28:06.809Z,56.30
2018-06-10T14:30:35.513Z,54.90
2018-06-10T14:33:11.680Z,56.50
2018-06-10T14:35:41.501Z,57.60
2018-06-10T14:38:10.213Z,57.50
2018-06-10T14:43:07.362Z,57.50
2018-06-10T14:45:36.090Z,57.60
2018-06-10T14:48:04.850Z,57.70
2018-06-10T14:50:34.177Z,58.70
2018-06-10T14:53:02.906Z,59.60
2018-06-10T14:55:31.890Z,61.50
2018-06-10T14:58:01.389Z,61.70
2018-06-10T15:00:30.177Z,59.10
2018-06-10T15:02:58.905Z,59.60
2018-06-10T15:05:27.665Z,59.10
2018-06-10T15:07:56.385Z,60.10
2018-06-10T15:10:25.122Z,58.30
2018-06-10T15:12:53.873Z,59.80
2018-06-10T15:15:22.606Z,60.50
2018-06-10T15:17:51.302Z,59.70
2018-06-10T15:20:20.022Z,59.80
2018-06-10T15:22:48.725Z,61.60
2018-06-10T15:27:46.105Z,59.30
2018-06-10T15:30:14.859Z,59.40
2018-06-10T15:32:43.545Z,58.30
2018-06-10T15:35:12.302Z,57.60
2018-06-10T15:37:41.024Z,57.00
2018-06-10T15:40:09.810Z,58.50
2018-06-10T15:42:38.526Z,57.00
2018-06-10T15:47:36.647Z,57.70
2018-06-10T15:50:05.414Z,57.90
2018-06-10T15:52:34.097Z,57.30
2018-06-10T15:55:02.821Z,57.00
2018-06-10T15:57:31.550Z,57.30
2018-06-10T16:00:00.270Z,57.30
2018-06-10T16:02:29.006Z,57.20
2018-06-10T16:04:57.749Z,55.00
2018-06-10T16:07:26.441Z,52.80
2018-06-10T16:09:55.301Z,52.90
2018-06-10T16:14:52.596Z,54.80
2018-06-10T16:17:21.435Z,54.10
2018-06-10T16:19:50.114Z,51.20
2018-06-10T16:22:18.877Z,51.90
2018-06-10T16:24:47.586Z,49.50
2018-06-10T16:27:16.318Z,51.10
2018-06-10T16:29:45.174Z,51.60
2018-06-10T16:32:13.905Z,53.00
2018-06-10T16:37:11.037Z,53.60
2018-06-10T16:39:40.737Z,53.60
2018-06-10T16:42:09.498Z,53.30
2018-06-10T16:44:38.233Z,51.10
2018-06-10T16:47:06.953Z,50.00
2018-06-10T16:49:35.669Z,50.20
2018-06-10T16:52:04.405Z,50.30
2018-06-10T16:54:33.107Z,50.80
2018-06-10T16:57:01.833Z,53.50
2018-06-10T16:59:30.565Z,53.70
2018-06-10T17:01:59.265Z,55.40
2018-06-10T17:04:28.144Z,56.90
2018-06-10T17:06:56.845Z,57.10
2018-06-10T17:09:25.537Z,57.70
2018-06-10T17:11:54.550Z,57.10
2018-06-10T17:14:23.289Z,57.80
2018-06-10T17:16:52.038Z,58.30
2018-06-10T17:19:22.966Z,59.80
2018-06-10T17:21:51.703Z,61.50
2018-06-10T17:24:20.433Z,63.00
2018-06-10T17:26:49.142Z,62.50
2018-06-10T17:29:17.941Z,61.20
2018-06-10T17:31:46.678Z,62.40
2018-06-10T17:34:15.437Z,62.50
2018-06-10T17:36:44.144Z,62.70
2018-06-10T17:39:12.890Z,64.20
2018-06-10T17:41:41.613Z,63.30
2018-06-10T17:44:10.368Z,63.10
2018-06-10T17:46:39.101Z,64.50
2018-06-10T17:49:07.822Z,65.60
2018-06-10T17:51:36.546Z,64.20
2018-06-10T17:54:05.265Z,67.60
2018-06-10T17:56:33.997Z,71.10
2018-06-10T17:59:02.692Z,73.70
2018-06-10T18:01:31.453Z,77.80
2018-06-10T18:04:00.486Z,79.90
2018-06-10T18:06:29.209Z,81.50
2018-06-10T18:08:57.930Z,81.30
2018-06-10T18:11:26.658Z,82.50
2018-06-10T18:13:55.366Z,87.40
2018-06-10T18:16:24.117Z,90.90
2018-06-10T18:18:52.845Z,90.50
2018-06-10T18:21:21.602Z,88.30
2018-06-10T18:23:50.314Z,87.50
2018-06-10T18:26:19.014Z,87.70
2018-06-10T18:28:47.726Z,86.30
2018-06-10T18:31:16.436Z,86.30
2018-06-10T18:33:45.157Z,86.00
2018-06-10T18:36:13.865Z,88.00
2018-06-10T18:38:42.636Z,88.90
2018-06-10T18:41:11.357Z,90.70
2018-06-10T18:43:41.081Z,91.60
2018-06-10T18:46:09.801Z,92.50
2018-06-10T18:48:38.518Z,92.50
2018-06-10T18:51:07.276Z,92.30
2018-06-10T18:53:35.977Z,92.70
2018-06-10T18:56:04.713Z,91.80
2018-06-10T18:58:33.455Z,91.60
2018-06-10T19:01:02.202Z,92.50
2018-06-10T19:03:30.936Z,93.00
2018-06-10T19:05:59.653Z,93.50
2018-06-10T19:08:28.353Z,94.40
2018-06-10T19:10:57.097Z,94.50
2018-06-10T19:13:25.943Z,94.90
2018-06-10T19:15:54.662Z,93.70
2018-06-10T19:18:23.420Z,94.40
2018-06-10T19:20:52.345Z,95.10
2018-06-10T19:23:21.070Z,94.40
2018-06-10T19:25:49.762Z,94.40
2018-06-10T19:28:18.657Z,94.40
2018-06-10T19:30:47.421Z,94.30
2018-06-10T19:33:16.159Z,94.50
2018-06-10T19:35:44.862Z,93.60
2018-06-10T19:38:13.578Z,94.90
2018-06-10T19:40:42.282Z,94.10
2018-06-10T19:43:11.329Z,94.40
2018-06-10T19:45:40.038Z,95.30
2018-06-10T19:48:08.765Z,95.20
2018-06-10T19:50:38.626Z,95.80
2018-06-10T19:53:07.345Z,95.80
2018-06-10T19:55:36.062Z,95.20
2018-06-10T19:58:04.777Z,96.20
2018-06-10T20:00:33.917Z,96.80
2018-06-10T20:03:02.645Z,97.00
2018-06-10T20:05:31.358Z,97.90
2018-06-10T20:08:00.094Z,97.90
2018-06-10T20:10:28.821Z,97.60
2018-06-10T20:12:57.575Z,97.30
2018-06-10T20:15:26.310Z,96.10
2018-06-10T20:17:55.010Z,96.60
2018-06-10T20:20:23.701Z,96.00
2018-06-10T20:22:52.401Z,96.30
2018-06-10T20:25:21.149Z,96.60
2018-06-10T20:27:49.881Z,95.80
2018-06-10T20:30:18.704Z,95.80
2018-06-10T20:32:47.330Z,95.90
2018-06-10T20:35:16.038Z,95.70
2018-06-10T20:37:44.989Z,95.30
2018-06-10T20:40:13.714Z,95.80
2018-06-10T20:42:42.486Z,96.00
2018-06-10T20:45:11.206Z,97.20
2018-06-10T20:47:39.901Z,97.10
2018-06-10T20:50:08.638Z,97.40
2018-06-10T20:52:37.340Z,97.40
2018-06-10T20:55:06.053Z,97.20
2018-06-10T20:57:34.782Z,97.90
2018-06-10T21:00:03.509Z,98.30
2018-06-10T21:02:32.241Z,97.90
2018-06-10T21:05:00.966Z,97.90
2018-06-10T21:07:29.829Z,97.30
2018-06-10T21:09:58.602Z,97.20
2018-06-10T21:12:27.314Z,97.40
2018-06-10T21:14:56.189Z,97.40
2018-06-10T21:17:24.909Z,97.20
2018-06-10T21:19:53.694Z,97.40
2018-06-10T21:22:22.428Z,97.20
2018-06-10T21:24:51.130Z,97.30
2018-06-10T21:27:19.965Z,97.50
2018-06-10T21:29:48.685Z,97.00
2018-06-10T21:32:17.393Z,97.90
2018-06-10T21:34:46.120Z,97.80
2018-06-10T21:37:14.830Z,97.20
2018-06-10T21:39:43.544Z,97.50
2018-06-10T21:42:12.276Z,97.20
2018-06-10T21:44:40.977Z,97.60
2018-06-10T21:47:09.722Z,97.90
2018-06-10T21:49:38.421Z,98.20
2018-06-10T21:52:07.173Z,99.00
2018-06-10T21:54:35.905Z,98.10
2018-06-10T21:57:04.649Z,97.10
2018-06-10T21:59:33.422Z,96.80
2018-06-10T22:02:02.249Z,97.30
2018-06-10T22:04:31.078Z,98.40
2018-06-10T22:06:59.738Z,98.60
2018-06-10T22:09:28.458Z,98.70
2018-06-10T22:11:57.205Z,99.00
2018-06-10T22:14:26.977Z,98.50
2018-06-10T22:16:55.697Z,99.20
2018-06-10T22:21:55.853Z,98.70
2018-06-10T22:24:24.625Z,98.50
2018-06-10T22:26:53.354Z,98.70
2018-06-10T22:29:22.109Z,97.90
2018-06-10T22:31:50.899Z,97.80
2018-06-10T22:34:19.570Z,97.20
2018-06-10T22:36:48.347Z,98.50
2018-06-10T22:39:16.993Z,98.50
2018-06-10T22:41:45.694Z,99.10
2018-06-10T22:44:15.820Z,99.30
2018-06-10T22:46:44.541Z,99.60
2018-06-10T22:49:13.292Z,99.10
2018-06-10T22:51:42.014Z,99.20
2018-06-10T22:54:51.057Z,99.00
2018-06-10T22:57:19.789Z,99.00
2018-06-10T22:59:48.505Z,99.50
2018-06-10T23:02:17.319Z,99.30
2018-06-10T23:04:46.098Z,99.80
2018-06-10T23:07:14.848Z,99.60
2018-06-10T23:09:43.557Z,99.90
2018-06-10T23:12:12.270Z,99.90
2018-06-10T23:17:09.446Z,99.90
2018-06-10T23:19:38.186Z,99.90
2018-06-10T23:22:06.918Z,99.90
2018-06-10T23:24:35.645Z,99.90
2018-06-10T23:27:04.449Z,99.90
2018-06-10T23:29:33.189Z,99.90
2018-06-10T23:32:01.933Z,99.90
2018-06-10T23:34:30.657Z,99.90
2018-06-10T23:36:59.406Z,99.90
2018-06-10T23:39:28.135Z,99.90
2018-06-10T23:41:56.859Z,99.90
2018-06-10T23:44:25.649Z,99.90
2018-06-10T23:46:54.416Z,99.90
2018-06-10T23:49:23.149Z,99.90
2018-06-10T23:51:51.899Z,99.90
2018-06-10T23:54:20.622Z,99.90
2018-06-10T23:56:49.337Z,99.60
2018-06-10T23:59:18.041Z,99.60
